Augusta, Illinois
Current Conditions -  °F | °C
As of 6:04 AM on Sunday 25 Jan 2015 (Local Time) from KUIN Reporting Station
Light Rain Light Rain  
Wind Chill: 40°   Ceiling: 2800
Heat Index: 40°   Visibility: 8mi
Dew Point: 36°   Wind: 0mph
Humidity: 86%   Direction: NA
Pressure: 29.57"   Gusts: NA
Location:  40.23°N, 90.95°W
Report Text: KUIN 251204Z AUTO 00000KT 8SM -RA OVC028 04/02 A2957 RMK AO2 P0000 T00440022
Loading
Personal Weather Stations






























Interactive Weather Map New forecast layout! Learn more

10-Day Weather Forecast

Advertisements
Track Severe Weather on mobile